Time;durP1;ratioP1;P1;durP2;ratioP2;P2;SDS_P1;SDS_P2;PMS_P1;PMS_P2;Temp;Humidity;BMP_temperature;BMP_pressure;BME280_temperature;BME280_humidity;BME280_pressure;Samples;Min_cycle;Max_cycle;Signal;HPM_P1;HPM_P2
2022/10/06 00:00:48;;;;;;;10.23;1.65;;;;;;;11.82;92.82;102107.50;5032752;28;20048;-81
2022/10/06 00:03:14;;;;;;;9.30;1.48;;;;;;;12.01;93.25;102152.31;5032532;28;20072;-80
2022/10/06 00:05:39;;;;;;;6.85;1.60;;;;;;;11.98;93.43;102160.19;5032589;28;20037;-75
2022/10/06 00:08:05;;;;;;;8.23;1.63;;;;;;;11.83;93.89;102160.94;5032476;28;20049;-74
2022/10/06 00:10:31;;;;;;;9.25;2.25;;;;;;;11.91;94.06;102179.53;5032553;28;20032;-76
2022/10/06 00:12:57;;;;;;;8.80;1.50;;;;;;;11.85;94.67;102179.81;5032529;28;20029;-76
2022/10/06 00:15:29;;;;;;;6.18;1.95;;;;;;;11.83;94.80;102191.16;5035829;28;20026;-77
2022/10/06 00:17:55;;;;;;;6.85;1.40;;;;;;;11.71;94.59;102180.44;5036259;28;20121;-76
2022/10/06 00:20:22;;;;;;;7.95;1.70;;;;;;;11.75;94.57;102192.31;5034959;28;20058;-77
2022/10/06 00:22:48;;;;;;;8.98;1.80;;;;;;;11.73;94.02;102199.31;5036162;28;20108;-81
2022/10/06 00:25:17;;;;;;;7.10;2.13;;;;;;;11.67;94.04;102201.31;5036298;28;20100;-76
2022/10/06 00:27:46;;;;;;;11.98;1.95;;;;;;;11.67;93.94;102212.50;5035998;28;20431;-75
2022/10/06 00:30:17;;;;;;;9.35;1.77;;;;;;;11.66;93.50;102217.75;5035807;28;20025;-76
2022/10/06 00:32:53;;;;;;;12.98;2.08;;;;;;;11.65;93.84;102221.25;5035906;28;20381;-75
2022/10/06 00:35:20;;;;;;;8.45;2.03;;;;;;;11.66;92.59;102228.13;5035794;28;20021;-76
2022/10/06 00:37:45;;;;;;;12.05;2.22;;;;;;;11.69;93.05;102230.56;5035879;28;20037;-76
2022/10/06 00:40:11;;;;;;;9.75;1.65;;;;;;;11.69;92.17;102236.56;5035862;28;20381;-75
2022/10/06 00:42:53;;;;;;;8.43;1.95;;;;;;;11.69;92.07;102228.81;5035682;28;20057;-75
2022/10/06 00:45:28;;;;;;;14.57;2.60;;;;;;;11.60;91.51;102224.06;5035653;28;20028;-76
2022/10/06 00:47:58;;;;;;;11.30;2.10;;;;;;;11.58;90.76;102225.03;5035651;28;20036;-75
2022/10/06 00:50:23;;;;;;;12.15;1.90;;;;;;;11.66;91.00;102241.06;5035832;28;20021;-75
2022/10/06 00:52:49;;;;;;;13.35;2.45;;;;;;;11.65;90.79;102250.56;5035707;28;20024;-74
2022/10/06 00:55:14;;;;;;;13.07;2.13;;;;;;;11.59;89.98;102248.25;5035865;28;20034;-75
2022/10/06 00:57:40;;;;;;;10.10;1.65;;;;;;;11.62;90.35;102257.63;5035269;28;20032;-75
2022/10/06 01:00:07;;;;;;;11.32;2.53;;;;;;;11.47;89.59;102238.44;5035434;28;20040;-75
2022/10/06 01:02:41;;;;;;;16.02;2.40;;;;;;;11.55;90.62;102254.47;5035381;28;20112;-75
2022/10/06 01:05:09;;;;;;;13.05;1.85;;;;;;;11.53;90.61;102258.88;5035336;28;20022;-75
2022/10/06 01:07:34;;;;;;;12.73;2.38;;;;;;;11.42;90.40;102250.75;5035558;28;20036;-75
2022/10/06 01:10:00;;;;;;;14.68;2.35;;;;;;;11.37;90.83;102258.69;5035177;28;20033;-75
2022/10/06 01:12:27;;;;;;;13.85;2.63;;;;;;;11.44;91.33;102277.38;5034917;28;20032;-75
2022/10/06 01:14:53;;;;;;;12.15;1.75;;;;;;;11.40;91.65;102283.59;5035151;28;20025;-74
2022/10/06 01:17:28;;;;;;;10.88;2.05;;;;;;;11.41;91.76;102286.13;5035350;28;20033;-75
2022/10/06 01:20:01;;;;;;;10.60;2.00;;;;;;;11.43;91.89;102297.25;5035203;28;20024;-74
2022/10/06 01:22:31;;;;;;;9.45;2.00;;;;;;;11.46;92.26;102294.50;5035068;28;20043;-76
2022/10/06 01:24:57;;;;;;;11.80;2.20;;;;;;;11.49;92.14;102293.53;5034424;28;20096;-74
2022/10/06 01:27:25;;;;;;;13.65;1.98;;;;;;;11.56;92.20;102294.13;5034409;28;20132;-75
2022/10/06 01:29:53;;;;;;;12.30;1.98;;;;;;;11.51;91.92;102306.44;5035185;28;20389;-74
2022/10/06 01:32:20;;;;;;;7.93;1.75;;;;;;;11.17;91.92;102258.72;5034822;28;20033;-75
2022/10/06 01:34:45;;;;;;;15.52;2.03;;;;;;;11.38;91.75;102311.28;5035056;28;20452;-76
2022/10/06 01:37:11;;;;;;;12.10;1.95;;;;;;;11.36;91.91;102313.94;5034853;28;20097;-76
2022/10/06 01:39:36;;;;;;;11.85;1.95;;;;;;;11.34;91.99;102323.50;5034654;28;20412;-76
2022/10/06 01:42:02;;;;;;;9.65;1.55;;;;;;;11.20;91.88;102298.19;5034580;28;20048;-75
2022/10/06 01:44:27;;;;;;;8.98;1.80;;;;;;;11.38;91.39;102329.38;5034518;28;20029;-74
2022/10/06 01:46:52;;;;;;;7.57;2.30;;;;;;;11.42;91.29;102329.19;5034598;28;20042;-75
2022/10/06 01:49:18;;;;;;;11.90;2.60;;;;;;;11.35;90.67;102314.00;5034645;28;20029;-75
2022/10/06 01:51:45;;;;;;;14.90;2.85;;;;;;;11.25;90.90;102310.94;5034596;28;20464;-76
2022/10/06 01:54:10;;;;;;;14.25;1.98;;;;;;;11.25;90.52;102326.47;5032421;28;20128;-76
2022/10/06 01:56:35;;;;;;;10.75;1.85;;;;;;;11.19;90.88;102321.53;5034409;28;20457;-75
2022/10/06 01:59:01;;;;;;;8.13;2.20;;;;;;;11.25;90.62;102334.22;5034100;28;20087;-75
2022/10/06 02:01:26;;;;;;;11.00;2.20;;;;;;;11.20;91.13;102336.16;5034381;28;20061;-75
2022/10/06 02:03:51;;;;;;;11.23;2.45;;;;;;;11.16;90.87;102345.78;5034467;28;20071;-80
2022/10/06 02:06:17;;;;;;;13.45;2.40;;;;;;;11.11;91.05;102344.28;5034540;28;20373;-80
2022/10/06 02:08:42;;;;;;;11.43;2.08;;;;;;;10.98;91.28;102328.44;5031865;28;20044;-80
2022/10/06 02:11:09;;;;;;;11.40;2.15;;;;;;;11.01;91.57;102349.03;5034140;28;20445;-77
2022/10/06 02:13:36;;;;;;;9.30;1.85;;;;;;;10.86;91.73;102323.78;5033948;28;20021;-76
2022/10/06 02:16:05;;;;;;;12.00;2.28;;;;;;;10.75;91.94;102323.38;5034270;28;20036;-75
2022/10/06 02:18:30;;;;;;;12.20;2.20;;;;;;;10.94;92.07;102370.00;5034226;28;20068;-81
2022/10/06 02:20:56;;;;;;;12.90;2.20;;;;;;;10.87;92.07;102367.66;5033981;28;20057;-75
2022/10/06 02:23:21;;;;;;;14.25;2.50;;;;;;;10.86;92.09;102373.72;5034029;28;20025;-77
2022/10/06 02:25:46;;;;;;;15.70;2.25;;;;;;;10.85;92.56;102377.22;5034013;28;20053;-75
2022/10/06 02:28:12;;;;;;;12.32;1.92;;;;;;;10.86;92.35;102380.63;5033586;28;20018;-80
2022/10/06 02:30:38;;;;;;;14.98;2.78;;;;;;;10.79;92.33;102377.44;5033869;28;20037;-79
2022/10/06 02:33:03;;;;;;;15.77;3.70;;;;;;;10.71;92.59;102376.03;5033786;28;20385;-76
2022/10/06 02:35:28;;;;;;;14.75;2.65;;;;;;;10.70;92.72;102379.53;5033621;28;20427;-77
2022/10/06 02:37:53;;;;;;;15.13;2.55;;;;;;;10.62;92.84;102377.28;5033553;28;20461;-75
2022/10/06 02:40:19;;;;;;;11.65;1.98;;;;;;;10.70;92.71;102405.38;5033736;28;20033;-75
2022/10/06 02:42:44;;;;;;;16.48;2.80;;;;;;;10.64;92.85;102403.88;5033507;28;20033;-75
2022/10/06 02:45:10;;;;;;;12.93;3.08;;;;;;;10.63;93.39;102412.53;5033510;28;20387;-75
2022/10/06 02:47:36;;;;;;;11.93;2.15;;;;;;;10.59;93.08;102416.94;5033321;28;20068;-79
2022/10/06 02:50:05;;;;;;;12.98;3.03;;;;;;;10.51;93.07;102408.66;5033409;28;20389;-76
2022/10/06 02:52:35;;;;;;;13.88;2.75;;;;;;;10.52;94.00;102414.66;5033665;28;20030;-76
2022/10/06 02:55:03;;;;;;;14.88;2.55;;;;;;;10.36;93.74;102393.72;5033437;28;20033;-80
2022/10/06 02:57:28;;;;;;;11.98;2.25;;;;;;;10.34;93.57;102408.44;5033466;28;20021;-75
2022/10/06 02:59:53;;;;;;;14.35;2.40;;;;;;;10.42;94.26;102426.22;5033148;28;20025;-80
2022/10/06 03:02:19;;;;;;;12.07;2.53;;;;;;;10.38;94.08;102429.81;5033296;28;20022;-75
2022/10/06 03:04:44;;;;;;;9.35;2.70;;;;;;;10.24;94.24;102420.00;5033289;28;20096;-75
2022/10/06 03:07:09;;;;;;;13.45;2.60;;;;;;;10.26;94.04;102425.97;5033286;28;20430;-76
2022/10/06 03:09:35;;;;;;;18.83;3.05;;;;;;;10.18;94.72;102415.88;5033239;28;20055;-79
2022/10/06 03:12:00;;;;;;;17.30;2.58;;;;;;;10.25;94.60;102456.09;5033302;28;20025;-79
2022/10/06 03:14:25;;;;;;;11.95;2.10;;;;;;;10.23;94.64;102450.16;5032939;28;20037;-80
2022/10/06 03:16:51;;;;;;;14.75;2.50;;;;;;;10.07;94.56;102431.75;5033134;28;20049;-80
2022/10/06 03:19:16;;;;;;;12.75;2.67;;;;;;;10.14;95.07;102452.19;5015505;28;20037;-81
2022/10/06 03:21:43;;;;;;;15.50;2.88;;;;;;;10.11;95.02;102460.00;5033284;28;20108;-81
2022/10/06 03:24:09;;;;;;;11.18;2.42;;;;;;;10.08;95.44;102460.97;5033081;28;20108;-76
2022/10/06 03:26:37;;;;;;;10.90;2.55;;;;;;;10.01;95.52;102469.81;5033098;28;20091;-79
2022/10/06 03:29:04;;;;;;;13.35;2.55;;;;;;;9.98;95.93;102465.59;5032610;28;20036;-79
2022/10/06 03:31:30;;;;;;;14.40;2.30;;;;;;;9.95;96.15;102473.47;5032939;28;20021;-76
2022/10/06 03:33:56;;;;;;;19.33;3.05;;;;;;;9.83;95.88;102471.28;5032964;28;20468;-81
2022/10/06 03:36:23;;;;;;;15.27;2.75;;;;;;;9.74;96.36;102454.41;5033145;28;20117;-81
2022/10/06 03:38:49;;;;;;;11.93;2.75;;;;;;;9.73;96.89;102464.75;5033059;28;20026;-81
2022/10/06 03:41:19;;;;;;;12.63;2.55;;;;;;;9.83;97.02;102489.34;5032986;28;20465;-81
2022/10/06 03:43:47;;;;;;;30.83;3.35;;;;;;;9.78;97.35;102494.66;5032800;28;20064;-81
2022/10/06 03:46:15;;;;;;;12.13;2.72;;;;;;;9.71;97.54;102490.59;5032481;28;20076;-81
2022/10/06 03:48:41;;;;;;;13.60;2.83;;;;;;;9.70;97.76;102499.22;5033506;28;20038;-81
2022/10/06 03:51:10;;;;;;;16.40;4.15;;;;;;;9.65;98.26;102501.13;5036862;28;20032;-80
2022/10/06 03:53:36;;;;;;;12.13;2.53;;;;;;;9.62;98.53;102501.19;5036947;28;20057;-81
2022/10/06 03:56:04;;;;;;;13.15;2.58;;;;;;;9.60;98.73;102515.91;5036752;28;20057;-81
2022/10/06 03:58:32;;;;;;;16.55;3.00;;;;;;;9.56;99.45;102514.31;5036593;28;20026;-80
2022/10/06 04:01:05;;;;;;;11.52;2.85;;;;;;;9.53;99.68;102514.38;5036545;28;20052;-80
2022/10/06 04:03:31;;;;;;;14.32;2.92;;;;;;;9.52;99.94;102533.34;5036554;28;20071;-81
2022/10/06 04:05:59;;;;;;;14.90;2.78;;;;;;;9.39;100.00;102522.56;5036652;28;20036;-81
2022/10/06 04:08:25;;;;;;;15.35;3.47;;;;;;;9.29;100.00;102516.00;5036390;28;20022;-80
2022/10/06 04:10:51;;;;;;;14.65;2.97;;;;;;;9.40;100.00;102541.47;5036468;28;20025;-81
2022/10/06 04:13:18;;;;;;;11.18;2.35;;;;;;;9.37;100.00;102550.13;5036063;28;20033;-79
2022/10/06 04:15:45;;;;;;;15.18;2.83;;;;;;;9.30;100.00;102542.63;5036150;28;20028;-81
2022/10/06 04:18:11;;;;;;;12.02;3.08;;;;;;;9.31;100.00;102552.91;5036408;28;20029;-82
2022/10/06 04:20:37;;;;;;;11.65;3.22;;;;;;;9.31;100.00;102560.63;5036419;28;20032;-81
2022/10/06 04:23:04;;;;;;;13.55;3.20;;;;;;;9.13;100.00;102543.13;5036238;28;20029;-81
2022/10/06 04:25:30;;;;;;;12.52;2.65;;;;;;;9.11;100.00;102544.91;5036133;28;20489;-81
2022/10/06 04:27:56;;;;;;;12.70;2.97;;;;;;;9.15;100.00;102562.84;5036015;28;20108;-80
2022/10/06 04:30:22;;;;;;;17.08;3.22;;;;;;;9.13;100.00;102564.59;5035844;28;20076;-81
2022/10/06 04:32:47;;;;;;;13.85;3.40;;;;;;;9.19;100.00;102573.88;5036081;28;20033;-81
2022/10/06 04:35:13;;;;;;;15.23;3.60;;;;;;;9.16;100.00;102577.41;5036079;28;20083;-80
2022/10/06 04:37:38;;;;;;;17.38;3.90;;;;;;;9.13;100.00;102579.22;5035946;28;20033;-80
2022/10/06 04:40:04;;;;;;;20.35;4.50;;;;;;;9.12;100.00;102573.22;5035878;28;20040;-81
2022/10/06 04:42:30;;;;;;;12.35;3.97;;;;;;;9.06;100.00;102578.56;5035634;28;20018;-81
2022/10/06 04:44:55;;;;;;;16.33;3.35;;;;;;;9.00;100.00;102575.31;5035585;28;20492;-81
2022/10/06 04:47:20;;;;;;;11.50;3.33;;;;;;;9.05;100.00;102582.03;5035587;28;20044;-81
2022/10/06 04:49:46;;;;;;;16.48;4.28;;;;;;;9.02;100.00;102594.13;5035856;28;20037;-81
2022/10/06 04:52:11;;;;;;;15.63;3.13;;;;;;;9.00;100.00;102594.19;5036132;28;20053;-81
2022/10/06 04:54:36;;;;;;;19.05;3.55;;;;;;;8.98;100.00;102597.69;5035702;28;20380;-80
2022/10/06 04:57:02;;;;;;;16.52;3.72;;;;;;;8.84;100.00;102586.03;5035492;28;20457;-80
2022/10/06 05:02:12;;;;;;;13.32;3.63;;;;;;;8.83;100.00;102602.38;5034840;28;20036;-79
2022/10/06 05:04:38;;;;;;;20.45;3.97;;;;;;;8.85;100.00;102608.34;5035614;28;20104;-79
2022/10/06 05:07:03;;;;;;;14.70;3.17;;;;;;;8.85;100.00;102620.38;5035471;28;20484;-80
2022/10/06 05:09:28;;;;;;;18.73;3.65;;;;;;;8.81;100.00;102618.75;5033185;28;20038;-81
2022/10/06 05:11:53;;;;;;;18.10;3.50;;;;;;;8.81;100.00;102627.34;5035485;28;20017;-81
2022/10/06 05:14:19;;;;;;;19.08;4.10;;;;;;;8.81;100.00;102626.50;5035222;28;20568;-81
2022/10/06 05:16:44;;;;;;;17.02;3.25;;;;;;;8.74;100.00;102630.94;5035218;28;20021;-81
2022/10/06 05:19:10;;;;;;;22.92;3.92;;;;;;;8.77;100.00;102642.94;5035287;28;20030;-81
2022/10/06 05:21:35;;;;;;;18.15;4.80;;;;;;;8.74;100.00;102651.56;5035304;28;20025;-81
2022/10/06 05:24:02;;;;;;;20.17;4.60;;;;;;;8.74;100.00;102648.13;5034920;28;20091;-81
2022/10/06 05:26:29;;;;;;;16.90;3.60;;;;;;;8.71;100.00;102656.78;5035058;28;20049;-80
2022/10/06 05:28:56;;;;;;;22.77;4.72;;;;;;;8.57;100.00;102640.88;5035051;28;20021;-81
2022/10/06 05:31:25;;;;;;;18.27;3.45;;;;;;;8.62;100.00;102663.03;5034707;28;20420;-79
2022/10/06 05:33:50;;;;;;;15.07;4.05;;;;;;;8.50;100.00;102644.47;4995606;28;20030;-79
2022/10/06 05:36:18;;;;;;;18.45;3.63;;;;;;;8.51;100.00;102659.03;4995625;28;20483;-79
2022/10/06 05:38:44;;;;;;;18.55;4.15;;;;;;;8.53;100.00;102670.13;4995366;28;20030;-81
2022/10/06 05:41:11;;;;;;;17.52;4.00;;;;;;;8.51;100.00;102672.75;4995419;28;20031;-80
2022/10/06 05:43:37;;;;;;;18.73;4.22;;;;;;;8.46;100.00;102674.63;4995406;28;20386;-79
2022/10/06 05:46:05;;;;;;;18.15;4.13;;;;;;;8.45;100.00;102678.03;4994893;28;20047;-79
2022/10/06 05:48:31;;;;;;;21.60;3.97;;;;;;;8.42;100.00;102677.28;4995199;28;20048;-78
2022/10/06 05:51:02;;;;;;;21.85;4.45;;;;;;;8.35;100.00;102674.00;4995437;28;20117;-80
2022/10/06 05:53:28;;;;;;;15.02;4.03;;;;;;;8.44;100.00;102693.53;4995228;28;20022;-80
2022/10/06 05:56:08;;;;;;;12.55;4.05;;;;;;;8.43;100.00;102689.28;4995214;28;20019;-77
2022/10/06 05:58:35;;;;;;;25.52;5.35;;;;;;;8.44;100.00;102696.94;4995012;28;20126;-81
2022/10/06 06:01:18;;;;;;;19.35;4.38;;;;;;;8.33;100.00;102684.31;4994959;28;20030;-80
2022/10/06 06:03:53;;;;;;;17.38;3.80;;;;;;;8.47;100.00;102703.78;4994907;28;20093;-80
2022/10/06 06:06:21;;;;;;;17.38;4.05;;;;;;;8.55;100.00;102709.56;4994820;28;20030;-81
2022/10/06 06:08:50;;;;;;;21.90;5.10;;;;;;;8.56;100.00;102717.28;5028763;28;20037;-80
2022/10/06 06:11:16;;;;;;;28.30;4.97;;;;;;;8.58;100.00;102727.53;5033696;28;20432;-80
2022/10/06 06:13:41;;;;;;;16.13;3.40;;;;;;;8.57;100.00;102721.53;5034196;28;20025;-81
2022/10/06 06:16:12;;;;;;;22.73;4.25;;;;;;;8.61;100.00;102724.88;5033961;28;20056;-78
2022/10/06 06:18:37;;;;;;;19.30;4.28;;;;;;;8.61;100.00;102730.88;5034366;28;20384;-79
2022/10/06 06:21:05;;;;;;;20.33;4.70;;;;;;;8.63;100.00;102729.09;5034036;28;20022;-81
2022/10/06 06:23:36;;;;;;;19.15;3.95;;;;;;;8.67;100.00;102735.03;5033894;28;20025;-80
2022/10/06 06:26:11;;;;;;;18.35;4.22;;;;;;;8.61;100.00;102717.16;5034026;28;20022;-80
2022/10/06 06:28:36;;;;;;;20.50;3.97;;;;;;;8.74;100.00;102735.72;5033600;28;20550;-74
2022/10/06 06:31:05;;;;;;;18.85;3.83;;;;;;;8.76;100.00;102742.53;5033837;28;20058;-77
2022/10/06 06:33:32;;;;;;;15.57;3.85;;;;;;;8.72;100.00;102722.88;5033650;28;20110;-81
2022/10/06 06:36:01;;;;;;;17.75;4.68;;;;;;;8.73;100.00;102718.56;5033479;28;20029;-76
2022/10/06 06:38:27;;;;;;;20.35;4.05;;;;;;;8.82;100.00;102737.22;5033658;28;20025;-76
2022/10/06 06:40:52;;;;;;;19.77;3.90;;;;;;;8.89;100.00;102743.91;5033749;28;20032;-76
2022/10/06 06:43:17;;;;;;;21.27;4.47;;;;;;;8.82;100.00;102729.50;5033523;28;20033;-80
2022/10/06 06:45:43;;;;;;;14.02;3.72;;;;;;;8.99;100.00;102752.25;5031778;28;20548;-80
2022/10/06 06:48:14;;;;;;;21.98;4.30;;;;;;;9.04;100.00;102759.84;5026471;28;20168;-73
2022/10/06 06:50:40;;;;;;;22.33;3.95;;;;;;;9.10;100.00;102763.13;5013816;28;20037;-75
2022/10/06 06:53:07;;;;;;;17.83;4.53;;;;;;;8.99;100.00;102741.94;5013966;28;20453;-75
2022/10/06 06:55:32;;;;;;;20.45;4.88;;;;;;;9.19;100.00;102770.63;5013659;28;20034;-81
2022/10/06 06:57:57;;;;;;;20.27;4.03;;;;;;;9.26;100.00;102775.63;5013631;28;20061;-80
2022/10/06 07:00:22;;;;;;;19.17;3.83;;;;;;;9.16;100.00;102752.69;5013712;28;20056;-78
2022/10/06 07:03:00;;;;;;;20.70;4.38;;;;;;;9.38;100.00;102780.47;5022683;28;20033;-77
2022/10/06 07:05:26;;;;;;;16.63;4.35;;;;;;;9.43;100.00;102786.31;5033095;28;20026;-73
2022/10/06 07:07:51;;;;;;;15.95;4.43;;;;;;;9.52;99.70;102787.81;5033403;28;20036;-73
2022/10/06 07:10:16;;;;;;;20.83;4.68;;;;;;;9.57;99.51;102793.72;5033285;28;20477;-78
2022/10/06 07:12:44;;;;;;;19.67;3.70;;;;;;;9.61;99.03;102803.88;5033258;28;20492;-80
2022/10/06 07:26:06;;;;;;;23.80;4.07;;;;;;;9.91;96.87;102809.91;5033380;28;20079;-76
2022/10/06 07:28:31;;;;;;;14.25;3.53;;;;;;;9.96;97.70;102808.06;5032907;28;20029;-79
2022/10/06 07:30:59;;;;;;;18.60;3.70;;;;;;;10.04;96.61;102818.19;5032762;28;20396;-74
2022/10/06 07:33:31;;;;;;;16.45;3.88;;;;;;;10.09;95.66;102839.53;5032739;28;20486;-75
2022/10/06 07:35:56;;;;;;;19.08;3.58;;;;;;;10.12;96.60;102836.00;5033137;28;20243;-75
2022/10/06 07:38:24;;;;;;;21.20;4.50;;;;;;;10.20;95.68;102854.72;5032990;28;20482;-75
2022/10/06 07:40:56;;;;;;;18.42;4.57;;;;;;;10.26;95.30;102854.56;5032914;28;20111;-78
2022/10/06 07:43:22;;;;;;;23.90;4.40;;;;;;;10.33;94.77;102856.09;5032855;28;20152;-79
2022/10/06 07:45:48;;;;;;;22.30;4.65;;;;;;;10.34;94.65;102850.88;5032736;28;20104;-73
2022/10/06 07:48:16;;;;;;;19.08;4.40;;;;;;;10.45;94.14;102854.88;5032371;28;20041;-76
2022/10/06 07:50:44;;;;;;;23.95;5.03;;;;;;;10.44;94.19;102848.88;5032802;28;20493;-74
2022/10/06 07:53:10;;;;;;;17.50;3.90;;;;;;;10.48;93.32;102849.59;5028130;28;20405;-75
2022/10/06 07:55:38;;;;;;;13.65;4.10;;;;;;;10.66;94.21;102863.72;5013256;28;20035;-75
2022/10/06 07:58:14;;;;;;;13.50;4.13;;;;;;;10.69;93.46;102866.19;5013248;28;20382;-76
2022/10/06 08:00:41;;;;;;;20.25;4.50;;;;;;;10.76;93.46;102870.28;5013070;28;20029;-73
2022/10/06 08:03:07;;;;;;;18.42;3.85;;;;;;;10.83;93.78;102866.63;5012848;28;20022;-74
2022/10/06 08:05:33;;;;;;;13.95;3.45;;;;;;;10.78;92.18;102860.75;5012961;28;20034;-78
2022/10/06 08:07:58;;;;;;;19.67;4.68;;;;;;;10.77;91.38;102849.56;5012966;28;20097;-80
2022/10/06 08:10:24;;;;;;;21.52;4.03;;;;;;;10.99;91.36;102882.47;5013145;28;20037;-78
2022/10/06 08:12:49;;;;;;;14.13;3.83;;;;;;;11.03;91.42;102874.59;5012734;28;20025;-78
2022/10/06 08:15:14;;;;;;;21.15;4.55;;;;;;;11.08;90.86;102885.59;5012881;28;20034;-79
2022/10/06 08:17:40;;;;;;;16.40;4.03;;;;;;;10.85;90.92;102838.97;5012916;28;20037;-80
2022/10/06 08:20:09;;;;;;;19.65;3.97;;;;;;;11.14;90.20;102882.84;5012896;28;20026;-77
2022/10/06 08:22:35;;;;;;;16.75;3.90;;;;;;;11.23;91.09;102888.59;5012898;28;20392;-80
2022/10/06 08:25:00;;;;;;;17.58;4.30;;;;;;;11.22;90.58;102879.16;5012673;28;20105;-81
2022/10/06 08:27:27;;;;;;;18.73;4.22;;;;;;;11.25;91.12;102885.06;4994971;28;20030;-80
2022/10/06 08:29:53;;;;;;;19.63;4.03;;;;;;;11.42;89.77;102905.22;5012678;28;20056;-81
2022/10/06 08:32:19;;;;;;;24.55;4.50;;;;;;;11.44;88.84;102904.25;5012811;28;20017;-80
2022/10/06 08:34:48;;;;;;;17.88;3.63;;;;;;;11.41;88.42;102888.00;5013431;28;20071;-80
2022/10/06 08:37:22;;;;;;;22.13;4.18;;;;;;;11.43;87.75;102891.38;4998728;28;20021;-79
2022/10/06 08:39:49;;;;;;;17.40;3.95;;;;;;;11.64;87.84;102913.94;5016173;28;20022;-78
2022/10/06 08:42:23;;;;;;;16.45;3.25;;;;;;;11.68;86.79;102920.69;5020441;28;20073;-80
2022/10/06 08:44:55;;;;;;;17.73;3.60;;;;;;;11.66;87.11;102900.94;5016505;28;20087;-80
2022/10/06 08:47:22;;;;;;;22.30;3.83;;;;;;;11.82;88.47;102915.09;5015712;28;20048;-81
2022/10/06 08:49:49;;;;;;;17.65;3.40;;;;;;;11.87;88.31;102923.53;5015506;28;20504;-79
2022/10/06 08:52:26;;;;;;;23.60;4.45;;;;;;;11.97;88.03;102929.22;5015971;28;20030;-81
2022/10/06 08:55:12;;;;;;;15.75;4.28;;;;;;;11.95;87.07;102915.50;5015676;28;20030;-80
2022/10/06 08:57:46;;;;;;;19.25;3.90;;;;;;;12.02;86.00;102930.75;5015781;28;20033;-80
2022/10/06 09:00:13;;;;;;;18.13;4.70;;;;;;;12.05;86.28;102929.81;5015746;28;20045;-80
2022/10/06 09:02:44;;;;;;;17.95;3.83;;;;;;;12.02;86.06;102916.97;5015726;28;20101;-79
2022/10/06 09:05:13;;;;;;;24.90;4.30;;;;;;;12.04;85.20;102917.75;5015411;28;20037;-78
2022/10/06 09:08:04;;;;;;;16.27;4.43;;;;;;;12.25;85.63;102942.88;5015584;28;20091;-80
2022/10/06 09:10:38;;;;;;;19.13;3.65;;;;;;;12.34;85.64;102941.69;5015575;28;20073;-79
2022/10/06 09:13:22;;;;;;;14.15;3.55;;;;;;;12.30;84.43;102937.53;5015489;28;20477;-79
2022/10/06 09:15:58;;;;;;;12.90;3.17;;;;;;;12.29;85.02;102936.69;5015328;28;20049;-79
2022/10/06 09:18:31;;;;;;;17.60;3.67;;;;;;;12.52;84.53;102963.50;5015391;28;20470;-76
2022/10/06 09:21:09;;;;;;;15.38;3.53;;;;;;;12.38;84.09;102932.06;5013516;28;20084;-81
2022/10/06 09:23:48;;;;;;;15.50;3.05;;;;;;;12.56;83.05;102959.88;5015214;28;20065;-78
2022/10/06 09:26:17;;;;;;;16.48;3.38;;;;;;;12.71;82.27;102972.28;5013439;28;20035;-75
2022/10/06 09:28:46;;;;;;;16.67;3.30;;;;;;;12.53;81.66;102941.88;5015178;28;20081;-80
2022/10/06 09:31:42;;;;;;;18.02;4.05;;;;;;;12.82;83.08;102970.13;5013737;28;20026;-77
2022/10/06 09:34:26;;;;;;;17.08;3.58;;;;;;;12.86;82.07;102965.66;5014494;28;20041;-80
2022/10/06 09:36:57;;;;;;;17.73;3.55;;;;;;;13.00;82.12;102965.13;5014475;28;20061;-80
2022/10/06 09:39:27;;;;;;;17.30;3.47;;;;;;;12.95;80.41;102954.09;5014938;28;20069;-81
2022/10/06 09:41:53;;;;;;;15.48;3.30;;;;;;;13.11;80.78;102974.19;5014801;28;20078;-79
2022/10/06 09:44:28;;;;;;;16.30;3.38;;;;;;;13.11;79.27;102970.75;5014948;28;20109;-83
2022/10/06 09:46:53;;;;;;;14.13;3.05;;;;;;;13.12;78.43;102957.72;5013867;28;20057;-80
2022/10/06 09:49:21;;;;;;;11.77;3.40;;;;;;;13.33;78.92;102984.56;5014517;28;20030;-79
2022/10/06 09:52:15;;;;;;;13.25;3.08;;;;;;;13.35;78.90;102985.34;5014487;28;20030;-77
2022/10/06 09:55:05;;;;;;;14.13;3.35;;;;;;;13.22;77.59;102970.34;5014740;28;20025;-84
2022/10/06 09:57:31;;;;;;;21.17;3.60;;;;;;;13.10;77.44;102945.72;5012914;28;20034;-80
2022/10/06 09:59:58;;;;;;;18.13;2.92;;;;;;;13.40;77.01;102987.78;5014400;28;20036;-82
2022/10/06 10:02:39;;;;;;;14.38;3.17;;;;;;;13.49;75.41;102997.78;5014630;28;20030;-82
2022/10/06 10:05:17;;;;;;;16.77;2.80;;;;;;;13.36;75.46;102975.81;5014365;28;20026;-85
2022/10/06 10:07:42;;;;;;;16.83;3.47;;;;;;;13.45;76.75;102988.41;5014403;28;20056;-84
2022/10/06 10:10:24;;;;;;;14.05;2.75;;;;;;;13.26;76.16;102951.16;5014408;28;20033;-85
2022/10/06 10:12:50;;;;;;;15.25;2.90;;;;;;;13.56;75.30;102980.19;5014383;28;20030;-85
2022/10/06 10:15:23;;;;;;;13.43;2.75;;;;;;;13.73;75.64;102988.13;5014469;28;20129;-85
2022/10/06 10:17:52;;;;;;;12.55;2.70;;;;;;;13.90;74.15;102984.84;5014315;28;20068;-84
2022/10/06 10:20:24;;;;;;;12.27;2.30;;;;;;;14.04;73.67;102990.28;5013926;28;20515;-85
2022/10/06 10:22:51;;;;;;;13.88;3.17;;;;;;;13.90;72.34;102945.88;5014045;28;20080;-85
2022/10/06 10:25:43;;;;;;;13.18;3.17;;;;;;;14.44;73.50;102989.38;5014209;28;20033;-84
2022/10/06 10:28:27;;;;;;;12.30;2.92;;;;;;;14.86;72.36;102998.78;5014092;28;20097;-82
2022/10/06 10:31:05;;;;;;;9.85;2.38;;;;;;;15.02;70.81;102991.91;5014149;28;20018;-81
2022/10/06 10:33:49;;;;;;;13.88;3.38;;;;;;;15.11;67.51;102993.25;5013946;28;20171;-85
2022/10/06 10:36:17;;;;;;;14.20;3.20;;;;;;;14.62;67.53;102946.97;5013917;28;20026;-84
2022/10/06 10:39:13;;;;;;;10.48;3.20;;;;;;;14.77;68.59;103001.81;5000374;23;20391;-81
2022/10/06 10:42:14;;;;;;;10.25;3.13;;;;;;;13.78;67.44;102858.97;5005887;28;20084;-83
2022/10/06 10:45:00;;;;;;;14.25;2.90;;;;;;;13.85;69.81;102878.53;4998673;28;20076;-83
2022/10/06 10:47:34;;;;;;;11.80;3.20;;;;;;;14.60;68.96;102994.75;5013447;28;20036;-85
2022/10/06 10:50:10;;;;;;;11.73;3.15;;;;;;;14.57;69.28;102989.72;5013629;28;20030;-84
2022/10/06 10:52:40;;;;;;;15.95;3.08;;;;;;;14.53;70.00;102988.97;5013581;28;20437;-85
2022/10/06 10:55:29;;;;;;;17.15;3.40;;;;;;;14.47;69.70;102963.28;5013318;28;20014;-84
2022/10/06 10:58:00;;;;;;;16.15;3.47;;;;;;;14.76;68.31;102998.34;5013527;28;20034;-84
2022/10/06 11:00:29;;;;;;;8.87;2.50;;;;;;;14.70;67.33;102972.63;5013466;28;20018;-85
2022/10/06 11:02:57;;;;;;;10.57;3.08;;;;;;;14.90;68.52;103005.50;5013456;28;20026;-83
2022/10/06 11:05:38;;;;;;;9.40;3.00;;;;;;;14.61;67.27;102941.84;5013498;28;20017;-85
2022/10/06 11:08:33;;;;;;;11.35;3.22;;;;;;;14.92;66.32;103001.91;5013484;28;20057;-81
2022/10/06 11:11:02;;;;;;;12.60;3.47;;;;;;;14.89;65.63;102989.06;5013379;28;20033;-84
2022/10/06 11:13:39;;;;;;;12.10;2.65;;;;;;;15.15;66.43;103003.47;5013286;28;20030;-85
2022/10/06 11:16:19;;;;;;;15.00;3.17;;;;;;;15.21;64.92;103004.91;5013388;28;20053;-84
2022/10/06 11:19:13;;;;;;;9.35;3.03;;;;;;;15.39;65.67;103008.38;5013444;28;20037;-80
2022/10/06 11:21:56;;;;;;;10.63;3.03;;;;;;;15.53;64.85;102971.25;5012946;28;20105;-80
2022/10/06 11:24:40;;;;;;;13.07;3.13;;;;;;;15.85;65.19;103000.94;5013110;28;20065;-80
2022/10/06 11:27:18;;;;;;;11.00;2.78;;;;;;;15.67;62.95;103005.31;4995738;28;20030;-77
2022/10/06 11:30:01;;;;;;;11.13;3.08;;;;;;;15.27;63.38;102962.97;5013030;28;20025;-82
2022/10/06 11:32:50;;;;;;;9.35;2.28;;;;;;;15.49;64.71;102987.03;5012907;28;20470;-82
2022/10/06 11:35:27;;;;;;;10.65;2.95;;;;;;;15.66;62.91;103004.47;5013144;28;20065;-83
2022/10/06 11:38:09;;;;;;;9.75;2.25;;;;;;;15.59;63.30;102997.00;5012891;28;20056;-81
2022/10/06 11:40:48;;;;;;;10.68;2.20;;;;;;;15.54;61.46;103005.06;5012871;28;20030;-85
2022/10/06 11:43:38;;;;;;;11.00;2.17;;;;;;;15.56;63.03;102995.38;5013142;28;20059;-84